createdAt,value
2023-02-09T00:01:23.017Z,56.21
2023-02-09T00:03:50.326Z,55.52
2023-02-09T00:06:20.167Z,55.02
2023-02-09T00:08:50.372Z,54.88
2023-02-09T00:11:46.601Z,55.10
2023-02-09T00:14:15.396Z,55.05
2023-02-09T00:16:42.560Z,54.94
2023-02-09T00:19:10.532Z,54.70
2023-02-09T00:21:37.794Z,54.85
2023-02-09T00:24:05.624Z,54.03
2023-02-09T00:26:33.284Z,54.28
2023-02-09T00:29:00.386Z,53.76
2023-02-09T00:31:27.248Z,54.20
2023-02-09T00:33:54.065Z,54.08
2023-02-09T00:36:20.808Z,53.80
2023-02-09T00:38:48.527Z,54.22
2023-02-09T00:41:17.397Z,54.46
2023-02-09T00:43:45.323Z,54.12
2023-02-09T00:46:12.140Z,54.08
2023-02-09T00:48:38.965Z,54.14
2023-02-09T00:51:05.760Z,54.30
2023-02-09T00:53:32.528Z,54.04
2023-02-09T00:56:00.097Z,54.27
2023-02-09T00:58:26.945Z,54.14
2023-02-09T01:00:53.705Z,53.77
2023-02-09T01:03:20.516Z,54.03
2023-02-09T01:05:47.322Z,53.55
2023-02-09T01:08:14.076Z,53.50
2023-02-09T01:10:41.072Z,53.70
2023-02-09T01:13:07.871Z,53.22
2023-02-09T01:15:34.671Z,53.60
2023-02-09T01:18:01.536Z,52.99
2023-02-09T01:20:28.350Z,53.24
2023-02-09T01:22:55.205Z,53.18
2023-02-09T01:25:22.020Z,52.81
2023-02-09T01:27:48.769Z,52.83
2023-02-09T01:30:15.956Z,52.42
2023-02-09T01:32:43.016Z,52.50
2023-02-09T01:35:10.700Z,52.62
2023-02-09T01:37:37.583Z,52.35
2023-02-09T01:40:05.502Z,52.71
2023-02-09T01:42:32.752Z,52.48
2023-02-09T01:45:21.179Z,52.99
2023-02-09T01:48:09.515Z,52.82
2023-02-09T01:50:41.358Z,52.63
2023-02-09T01:53:08.672Z,52.91
2023-02-09T01:55:40.678Z,52.80
2023-02-09T01:58:13.327Z,52.45
2023-02-09T02:00:40.751Z,52.78
2023-02-09T02:03:21.310Z,52.65
2023-02-09T02:05:52.020Z,52.77
2023-02-09T02:08:31.941Z,52.62
2023-02-09T02:10:58.941Z,52.72
2023-02-09T02:13:25.849Z,52.31
2023-02-09T02:16:15.066Z,52.43
2023-02-09T02:19:01.791Z,51.87
2023-02-09T02:21:37.665Z,52.02
2023-02-09T02:24:23.013Z,51.75
2023-02-09T02:26:50.227Z,51.88
2023-02-09T02:29:54.537Z,52.21
2023-02-09T02:32:43.353Z,51.76
2023-02-09T02:35:16.160Z,52.08
2023-02-09T02:37:53.499Z,51.92
2023-02-09T02:40:38.676Z,51.49
2023-02-09T02:43:20.895Z,51.37
2023-02-09T02:46:00.762Z,51.45
2023-02-09T02:48:43.678Z,51.43
2023-02-09T02:51:17.799Z,51.90
2023-02-09T02:53:51.045Z,51.75
2023-02-09T02:56:24.254Z,51.40
2023-02-09T02:58:54.497Z,51.71
2023-02-09T03:01:25.431Z,51.38
2023-02-09T03:03:53.670Z,51.34
2023-02-09T03:06:20.501Z,51.29
2023-02-09T03:08:54.460Z,51.16
2023-02-09T03:11:24.226Z,51.00
2023-02-09T03:14:12.004Z,51.01
2023-02-09T03:16:46.110Z,51.01
2023-02-09T03:19:54.422Z,51.02
2023-02-09T03:22:34.901Z,50.95
2023-02-09T03:25:07.595Z,51.03
2023-02-09T03:27:48.090Z,51.09
2023-02-09T03:30:17.793Z,51.10
2023-02-09T03:32:47.080Z,51.04
2023-02-09T03:35:20.789Z,51.01
2023-02-09T03:37:47.616Z,51.81
2023-02-09T03:40:14.394Z,52.00
2023-02-09T03:42:41.326Z,52.46
2023-02-09T03:45:08.400Z,52.84
2023-02-09T03:47:35.225Z,52.58
2023-02-09T03:50:02.178Z,53.26
2023-02-09T03:52:31.022Z,53.75
2023-02-09T03:54:57.772Z,53.75
2023-02-09T03:57:24.680Z,54.40
2023-02-09T03:59:54.358Z,54.59
2023-02-09T04:02:21.288Z,54.53
2023-02-09T04:04:48.088Z,54.21
2023-02-09T04:07:15.349Z,54.56
2023-02-09T04:09:42.092Z,53.75
2023-02-09T04:12:08.822Z,53.67
2023-02-09T04:14:35.577Z,53.08
2023-02-09T04:17:02.547Z,52.85
2023-02-09T04:19:29.369Z,52.41
2023-02-09T04:21:56.150Z,52.82
2023-02-09T04:24:29.049Z,52.63
2023-02-09T04:26:55.907Z,52.81
2023-02-09T04:29:22.687Z,52.38
2023-02-09T04:31:49.498Z,52.21
2023-02-09T04:34:16.933Z,52.09
2023-02-09T04:36:44.000Z,52.42
2023-02-09T04:39:10.734Z,52.53
2023-02-09T04:41:37.539Z,52.17
2023-02-09T04:44:04.450Z,52.17
2023-02-09T04:46:31.192Z,51.97
2023-02-09T04:48:57.959Z,51.97
2023-02-09T04:51:24.934Z,51.87
2023-02-09T04:53:51.606Z,51.55
2023-02-09T04:56:18.478Z,51.99
2023-02-09T04:59:03.929Z,51.77
2023-02-09T05:01:31.943Z,51.79
2023-02-09T05:03:58.839Z,51.47
2023-02-09T05:06:25.663Z,51.80
2023-02-09T05:08:52.454Z,51.34
2023-02-09T05:11:19.194Z,51.38
2023-02-09T05:13:45.917Z,51.12
2023-02-09T05:16:17.441Z,50.92
2023-02-09T05:18:44.871Z,50.88
2023-02-09T05:21:14.160Z,50.54
2023-02-09T05:23:41.597Z,50.51
2023-02-09T05:26:08.811Z,50.65
2023-02-09T05:28:35.610Z,50.80
2023-02-09T05:31:02.508Z,50.58
2023-02-09T05:33:29.350Z,50.45
2023-02-09T05:35:56.199Z,50.26
2023-02-09T05:38:23.670Z,50.66
2023-02-09T05:40:50.925Z,50.20
2023-02-09T05:43:17.903Z,50.52
2023-02-09T05:45:45.671Z,51.02
2023-02-09T05:48:12.415Z,51.33
2023-02-09T05:50:39.218Z,51.36
2023-02-09T05:53:09.241Z,51.48
2023-02-09T05:55:36.506Z,52.09
2023-02-09T05:58:03.344Z,51.96
2023-02-09T06:00:30.770Z,52.11
2023-02-09T06:02:58.837Z,52.09
2023-02-09T06:05:25.990Z,51.87
2023-02-09T06:07:52.857Z,51.86
2023-02-09T06:10:19.807Z,51.43
2023-02-09T06:12:46.665Z,51.29
2023-02-09T06:15:16.434Z,51.49
2023-02-09T06:17:45.034Z,51.37
2023-02-09T06:20:12.123Z,51.72
2023-02-09T06:22:38.906Z,51.34
2023-02-09T06:25:06.027Z,51.70
2023-02-09T06:27:32.810Z,51.96
2023-02-09T06:29:59.605Z,51.61
2023-02-09T06:32:26.517Z,51.63
2023-02-09T06:34:53.329Z,51.46
2023-02-09T06:37:20.106Z,51.45
2023-02-09T06:39:46.901Z,51.95
2023-02-09T06:42:13.822Z,52.08
2023-02-09T06:44:40.697Z,52.00
2023-02-09T06:47:08.503Z,51.42
2023-02-09T06:49:35.239Z,51.37
2023-02-09T06:52:02.381Z,51.35
2023-02-09T06:54:29.407Z,51.46
2023-02-09T06:56:56.279Z,51.28
2023-02-09T06:59:23.418Z,51.45
2023-02-09T07:01:54.409Z,51.54
2023-02-09T07:04:23.983Z,51.65
2023-02-09T07:06:50.787Z,51.28
2023-02-09T07:09:17.574Z,52.23
2023-02-09T07:11:44.292Z,51.94
2023-02-09T07:14:13.318Z,53.27
2023-02-09T07:16:40.074Z,55.38
2023-02-09T07:19:06.834Z,56.30
2023-02-09T07:21:33.701Z,56.55
2023-02-09T07:24:00.441Z,56.43
2023-02-09T07:26:27.204Z,57.42
2023-02-09T07:28:53.932Z,61.44
2023-02-09T07:31:20.791Z,62.21
2023-02-09T07:33:47.651Z,59.71
2023-02-09T07:36:16.371Z,59.36
2023-02-09T07:38:43.504Z,58.97
2023-02-09T07:41:20.032Z,57.10
2023-02-09T07:43:47.241Z,56.71
2023-02-09T07:46:17.331Z,57.39
2023-02-09T07:48:44.271Z,57.13
2023-02-09T07:51:25.531Z,57.28
2023-02-09T07:53:53.498Z,55.96
2023-02-09T07:56:20.635Z,56.13
2023-02-09T07:58:47.550Z,55.65
2023-02-09T08:01:15.191Z,55.97
2023-02-09T08:03:45.704Z,56.65
2023-02-09T08:06:19.734Z,55.00
2023-02-09T08:08:51.549Z,56.59
2023-02-09T08:11:31.238Z,54.27
2023-02-09T08:14:01.620Z,53.80
2023-02-09T08:16:31.100Z,53.99
2023-02-09T08:19:02.182Z,53.77
2023-02-09T08:21:32.990Z,53.58
2023-02-09T08:24:00.243Z,51.79
2023-02-09T08:26:27.133Z,52.70
2023-02-09T08:28:54.591Z,53.14
2023-02-09T08:31:22.115Z,53.47
2023-02-09T08:33:50.631Z,53.71
2023-02-09T08:36:19.342Z,53.65
2023-02-09T08:38:46.128Z,53.19
2023-02-09T08:41:14.796Z,53.33
2023-02-09T08:43:42.020Z,52.89
2023-02-09T08:46:11.697Z,51.78
2023-02-09T08:48:40.631Z,51.19
2023-02-09T08:51:08.950Z,50.64
2023-02-09T08:53:35.750Z,51.20
2023-02-09T08:56:02.586Z,51.08
2023-02-09T08:58:30.279Z,51.08
2023-02-09T09:00:57.339Z,50.48
2023-02-09T09:03:29.970Z,50.76
2023-02-09T09:06:07.458Z,49.88
2023-02-09T09:08:36.227Z,49.89
2023-02-09T09:11:03.968Z,49.33
2023-02-09T09:13:30.727Z,48.76
2023-02-09T09:15:57.719Z,48.05
2023-02-09T09:18:25.476Z,47.89
2023-02-09T09:20:53.135Z,48.32
2023-02-09T09:23:21.289Z,48.94
2023-02-09T09:25:48.497Z,48.69
2023-02-09T09:28:15.980Z,48.86
2023-02-09T09:30:43.130Z,49.29
2023-02-09T09:33:09.980Z,49.55
2023-02-09T09:35:36.815Z,50.28
2023-02-09T09:38:03.822Z,52.30
2023-02-09T09:40:35.743Z,53.10
2023-02-09T09:43:06.103Z,53.31
2023-02-09T09:45:38.192Z,54.45
2023-02-09T09:48:07.393Z,55.60
2023-02-09T09:50:41.359Z,55.58
2023-02-09T09:53:33.567Z,54.76
2023-02-09T09:56:06.362Z,54.50
2023-02-09T09:58:34.650Z,53.63
2023-02-09T10:01:01.626Z,52.67
2023-02-09T10:03:28.461Z,53.10
2023-02-09T10:06:00.645Z,52.11
2023-02-09T10:08:37.087Z,52.02
2023-02-09T10:11:11.146Z,52.09
2023-02-09T10:13:44.734Z,51.84
2023-02-09T10:16:17.297Z,52.08
2023-02-09T10:18:44.538Z,51.05
2023-02-09T10:21:15.188Z,50.48
2023-02-09T10:23:45.275Z,51.70
2023-02-09T10:26:11.968Z,52.31
2023-02-09T10:28:51.810Z,52.67
2023-02-09T10:31:27.629Z,51.22
2023-02-09T10:34:03.337Z,53.27
2023-02-09T10:36:39.706Z,53.79
2023-02-09T10:39:31.456Z,54.48
2023-02-09T10:42:24.503Z,54.40
2023-02-09T10:44:57.180Z,53.75
2023-02-09T10:47:28.391Z,53.28
2023-02-09T10:50:05.801Z,52.48
2023-02-09T10:52:35.924Z,51.99
2023-02-09T10:55:14.989Z,52.40
2023-02-09T10:57:41.965Z,53.30
2023-02-09T11:00:17.782Z,53.14
2023-02-09T11:02:56.698Z,53.15
2023-02-09T11:05:23.515Z,52.48
2023-02-09T11:08:02.470Z,52.53
2023-02-09T11:10:35.129Z,51.64
2023-02-09T11:13:02.459Z,50.66
2023-02-09T11:15:45.142Z,49.42
2023-02-09T11:18:35.372Z,49.17
2023-02-09T11:21:08.496Z,49.71
2023-02-09T11:23:44.576Z,49.21
2023-02-09T11:26:31.532Z,49.13
2023-02-09T11:29:46.357Z,49.05
2023-02-09T11:32:38.332Z,48.72
2023-02-09T11:35:18.868Z,48.22
2023-02-09T11:38:03.967Z,48.69
2023-02-09T11:40:46.660Z,49.11
2023-02-09T11:43:21.821Z,49.12
2023-02-09T11:45:55.360Z,49.18
2023-02-09T11:48:29.188Z,50.06
2023-02-09T11:51:16.677Z,50.18
2023-02-09T11:53:59.923Z,49.27
2023-02-09T11:56:28.538Z,50.62
2023-02-09T11:58:58.260Z,50.25
2023-02-09T12:01:46.822Z,49.48
2023-02-09T12:04:25.296Z,49.08
2023-02-09T12:06:59.255Z,48.25
2023-02-09T12:09:42.094Z,49.26
2023-02-09T12:12:28.911Z,50.08
2023-02-09T12:15:07.969Z,48.61
2023-02-09T12:17:46.685Z,49.22
2023-02-09T12:20:47.238Z,48.49
2023-02-09T12:23:36.632Z,47.49
2023-02-09T12:26:34.295Z,48.31
2023-02-09T12:29:37.972Z,46.72
2023-02-09T12:32:04.756Z,46.24
2023-02-09T12:34:43.068Z,45.39
2023-02-09T12:37:12.929Z,45.66
2023-02-09T12:40:15.024Z,46.67
2023-02-09T12:43:02.918Z,45.96
2023-02-09T12:45:32.744Z,46.88
2023-02-09T12:48:11.514Z,44.98
2023-02-09T12:50:44.113Z,44.73
2023-02-09T12:53:23.101Z,44.76
2023-02-09T12:56:11.105Z,44.16
2023-02-09T12:58:45.346Z,45.68
2023-02-09T13:01:14.560Z,45.92
2023-02-09T13:03:45.323Z,45.27
2023-02-09T13:06:35.379Z,45.00
2023-02-09T13:09:07.616Z,45.06
2023-02-09T13:11:46.230Z,44.78
2023-02-09T13:14:16.387Z,45.32
2023-02-09T13:17:05.758Z,45.45
2023-02-09T13:19:53.711Z,45.46
2023-02-09T13:22:44.336Z,44.95
2023-02-09T13:25:20.242Z,45.16
2023-02-09T13:27:49.832Z,45.31
2023-02-09T13:30:33.685Z,44.98
2023-02-09T13:33:06.372Z,45.57
2023-02-09T13:35:39.694Z,46.08
2023-02-09T13:38:17.753Z,47.29
2023-02-09T13:40:48.253Z,47.36
2023-02-09T13:43:40.375Z,46.59
2023-02-09T13:46:26.046Z,47.77
2023-02-09T13:48:52.991Z,48.66
2023-02-09T13:51:20.833Z,48.60
2023-02-09T13:54:01.349Z,47.56
2023-02-09T13:56:30.862Z,47.72
2023-02-09T13:58:58.544Z,48.01
2023-02-09T14:01:37.039Z,47.96
2023-02-09T14:04:11.331Z,48.19
2023-02-09T14:06:44.742Z,48.22
2023-02-09T14:09:20.547Z,48.51
2023-02-09T14:11:52.562Z,48.72
2023-02-09T14:14:19.237Z,49.09
2023-02-09T14:16:53.470Z,49.50
2023-02-09T14:19:31.184Z,49.58
2023-02-09T14:21:58.033Z,49.66
2023-02-09T14:24:26.860Z,49.88
2023-02-09T14:27:00.001Z,50.19
2023-02-09T14:29:30.121Z,49.69
2023-02-09T14:31:58.301Z,49.74
2023-02-09T14:34:36.580Z,49.19
2023-02-09T14:37:23.528Z,49.85
2023-02-09T14:40:07.324Z,48.65
2023-02-09T14:42:39.590Z,48.42
2023-02-09T14:45:15.224Z,48.45
2023-02-09T14:47:44.483Z,47.50
2023-02-09T14:50:13.295Z,47.82
2023-02-09T14:52:46.755Z,47.38
2023-02-09T14:55:28.575Z,47.60
2023-02-09T14:57:55.538Z,47.42
2023-02-09T15:00:25.043Z,47.61
2023-02-09T15:02:53.066Z,47.74
2023-02-09T15:05:21.869Z,47.55
2023-02-09T15:07:55.887Z,47.57
2023-02-09T15:10:28.318Z,47.07
2023-02-09T15:12:56.387Z,47.04
2023-02-09T15:15:25.385Z,47.35
2023-02-09T15:17:54.186Z,47.19
2023-02-09T15:20:25.779Z,47.12
2023-02-09T15:22:54.946Z,47.77
2023-02-09T15:25:22.627Z,47.38
2023-02-09T15:27:52.606Z,48.13
2023-02-09T15:30:32.472Z,48.62
2023-02-09T15:32:59.431Z,48.64
2023-02-09T15:35:28.819Z,48.47
2023-02-09T15:38:00.878Z,49.17
2023-02-09T15:40:59.914Z,48.94
2023-02-09T15:43:45.844Z,49.75
2023-02-09T15:46:32.037Z,49.71
2023-02-09T15:48:59.495Z,49.75
2023-02-09T15:51:31.245Z,49.74
2023-02-09T15:54:05.494Z,50.34
2023-02-09T15:56:32.553Z,50.18
2023-02-09T15:59:05.495Z,50.31
2023-02-09T16:01:37.013Z,51.02
2023-02-09T16:04:13.890Z,51.41
2023-02-09T16:06:48.768Z,50.88
2023-02-09T16:09:20.415Z,50.83
2023-02-09T16:11:48.414Z,50.88
2023-02-09T16:14:17.764Z,50.70
2023-02-09T16:16:45.843Z,50.71
2023-02-09T16:19:13.516Z,50.32
2023-02-09T16:21:43.538Z,50.52
2023-02-09T16:24:21.429Z,50.27
2023-02-09T16:26:48.429Z,49.87
2023-02-09T16:29:15.830Z,49.37
2023-02-09T16:31:42.716Z,49.10
2023-02-09T16:34:15.181Z,48.95
2023-02-09T16:36:43.003Z,48.52
2023-02-09T16:39:18.427Z,48.44
2023-02-09T16:41:53.557Z,48.49
2023-02-09T16:44:24.293Z,48.49
2023-02-09T16:46:53.864Z,48.62
2023-02-09T16:49:38.244Z,48.83
2023-02-09T16:52:19.479Z,48.49
2023-02-09T16:54:50.316Z,47.91
2023-02-09T16:57:20.410Z,48.30
2023-02-09T16:59:47.263Z,48.28
2023-02-09T17:02:29.912Z,48.41
2023-02-09T17:04:58.030Z,47.88
2023-02-09T17:07:30.287Z,47.65
2023-02-09T17:09:57.631Z,47.32
2023-02-09T17:12:24.667Z,46.99
2023-02-09T17:14:51.458Z,46.98
2023-02-09T17:17:20.370Z,47.18
2023-02-09T17:19:49.700Z,47.91
2023-02-09T17:22:17.365Z,47.83
2023-02-09T17:24:47.112Z,47.82
2023-02-09T17:27:14.064Z,48.10
2023-02-09T17:29:40.872Z,48.23
2023-02-09T17:32:11.263Z,48.41
2023-02-09T17:34:38.116Z,48.25
2023-02-09T17:37:04.837Z,48.42
2023-02-09T17:39:31.569Z,48.54
2023-02-09T17:41:59.647Z,48.71
2023-02-09T17:44:43.723Z,48.79
2023-02-09T17:47:17.406Z,48.40
2023-02-09T17:49:44.100Z,48.66
2023-02-09T17:52:18.502Z,48.58
2023-02-09T17:54:45.635Z,48.38
2023-02-09T17:57:17.014Z,47.97
2023-02-09T17:59:45.463Z,47.86
2023-02-09T18:02:18.116Z,48.18
2023-02-09T18:04:45.028Z,48.17
2023-02-09T18:07:12.783Z,48.25
2023-02-09T18:09:39.570Z,48.45
2023-02-09T18:12:19.552Z,48.61
2023-02-09T18:14:46.440Z,48.46
2023-02-09T18:17:13.247Z,48.23
2023-02-09T18:19:40.170Z,47.90
2023-02-09T18:22:07.120Z,48.13
2023-02-09T18:24:35.148Z,47.95
2023-02-09T18:27:02.589Z,47.97
2023-02-09T18:29:30.133Z,48.12
2023-02-09T18:31:58.065Z,47.91
2023-02-09T18:34:25.579Z,48.17
2023-02-09T18:36:52.346Z,47.93
2023-02-09T18:39:19.192Z,48.10
2023-02-09T18:41:48.490Z,47.65
2023-02-09T18:44:15.365Z,48.00
2023-02-09T18:46:43.173Z,48.14
2023-02-09T18:49:12.739Z,47.98
2023-02-09T18:51:39.450Z,48.03
2023-02-09T18:54:06.306Z,48.31
2023-02-09T18:56:33.259Z,48.17
2023-02-09T18:58:59.944Z,48.05
2023-02-09T19:01:26.718Z,47.68
2023-02-09T19:03:53.820Z,47.80
2023-02-09T19:06:22.007Z,47.72
2023-02-09T19:08:50.418Z,47.35
2023-02-09T19:11:19.644Z,47.62
2023-02-09T19:14:06.720Z,47.86
2023-02-09T19:16:35.102Z,47.63
2023-02-09T19:19:01.834Z,47.74
2023-02-09T19:21:29.083Z,47.63
2023-02-09T19:23:55.990Z,47.35
2023-02-09T19:26:23.010Z,47.90
2023-02-09T19:28:49.858Z,48.47
2023-02-09T19:31:17.984Z,48.31
2023-02-09T19:33:44.833Z,48.90
2023-02-09T19:36:11.908Z,48.71
2023-02-09T19:38:38.681Z,48.24
2023-02-09T19:41:12.110Z,48.46
2023-02-09T19:43:40.742Z,48.52
2023-02-09T19:46:10.277Z,48.38
2023-02-09T19:48:46.918Z,48.63
2023-02-09T19:51:13.909Z,48.73
2023-02-09T19:53:40.706Z,48.58
2023-02-09T19:56:07.581Z,48.77
2023-02-09T19:58:37.286Z,48.84
2023-02-09T20:01:09.255Z,48.94
2023-02-09T20:03:37.043Z,48.89
2023-02-09T20:06:12.486Z,48.69
2023-02-09T20:08:39.884Z,48.96
2023-02-09T20:11:12.729Z,49.21
2023-02-09T20:13:39.603Z,49.15
2023-02-09T20:16:09.099Z,48.64
2023-02-09T20:18:36.356Z,48.91
2023-02-09T20:21:07.215Z,48.91
2023-02-09T20:23:34.591Z,49.18
2023-02-09T20:26:01.471Z,49.52
2023-02-09T20:28:28.263Z,49.36
2023-02-09T20:30:55.035Z,48.92
2023-02-09T20:33:21.773Z,49.18
2023-02-09T20:35:48.557Z,49.46
2023-02-09T20:38:15.395Z,49.40
2023-02-09T20:40:43.352Z,49.57
2023-02-09T20:43:31.029Z,49.18
2023-02-09T20:46:16.730Z,49.51
2023-02-09T20:48:43.582Z,49.57
2023-02-09T20:51:10.348Z,49.35
2023-02-09T20:53:37.081Z,49.17
2023-02-09T20:56:04.034Z,49.44
2023-02-09T20:58:30.780Z,49.91
2023-02-09T21:00:57.522Z,49.61
2023-02-09T21:03:24.401Z,51.48
2023-02-09T21:05:51.082Z,52.71
2023-02-09T21:08:17.849Z,52.18
2023-02-09T21:10:44.698Z,52.84
2023-02-09T21:13:12.072Z,52.72
2023-02-09T21:15:41.054Z,53.14
2023-02-09T21:18:08.263Z,53.52
2023-02-09T21:20:35.356Z,53.43
2023-02-09T21:23:02.205Z,54.24
2023-02-09T21:25:29.033Z,53.78
2023-02-09T21:27:56.081Z,53.95
2023-02-09T21:30:22.894Z,54.14
2023-02-09T21:32:49.707Z,54.40
2023-02-09T21:35:19.370Z,54.70
2023-02-09T21:37:46.172Z,55.38
2023-02-09T21:40:13.855Z,55.37
2023-02-09T21:42:41.081Z,55.69
2023-02-09T21:45:08.811Z,55.87
2023-02-09T21:47:38.763Z,56.42
2023-02-09T21:50:11.462Z,56.01
2023-02-09T21:52:38.386Z,56.22
2023-02-09T21:55:05.943Z,56.15
2023-02-09T21:57:32.787Z,56.49
2023-02-09T22:00:04.464Z,56.45
2023-02-09T22:02:31.821Z,57.23
2023-02-09T22:04:58.540Z,56.98
2023-02-09T22:07:25.572Z,56.63
2023-02-09T22:09:52.446Z,56.44
2023-02-09T22:12:19.319Z,56.64
2023-02-09T22:14:46.508Z,56.53
2023-02-09T22:17:13.247Z,56.67
2023-02-09T22:19:40.098Z,57.43
2023-02-09T22:22:07.320Z,57.03
2023-02-09T22:24:34.896Z,57.98
2023-02-09T22:27:03.325Z,57.83
2023-02-09T22:29:30.509Z,57.48
2023-02-09T22:31:58.272Z,57.83
2023-02-09T22:34:25.223Z,57.47
2023-02-09T22:36:53.224Z,58.07
2023-02-09T22:39:21.214Z,58.40
2023-02-09T22:41:48.469Z,58.81
2023-02-09T22:44:16.635Z,58.67
2023-02-09T22:46:45.113Z,58.55
2023-02-09T22:49:18.268Z,58.66
2023-02-09T22:51:46.693Z,58.32
2023-02-09T22:54:19.018Z,58.60
2023-02-09T22:56:45.862Z,58.63
2023-02-09T22:59:14.694Z,58.72
2023-02-09T23:01:41.625Z,58.58
2023-02-09T23:04:08.584Z,58.80
2023-02-09T23:06:35.547Z,58.92
2023-02-09T23:09:05.218Z,59.24
2023-02-09T23:11:32.189Z,58.89
2023-02-09T23:14:09.150Z,58.79
2023-02-09T23:16:37.684Z,58.79
2023-02-09T23:19:07.068Z,58.32
2023-02-09T23:21:38.285Z,58.75
2023-02-09T23:24:05.689Z,58.47
2023-02-09T23:26:32.683Z,58.66
2023-02-09T23:29:01.625Z,59.33
2023-02-09T23:31:28.665Z,59.23
2023-02-09T23:33:55.726Z,59.33
2023-02-09T23:36:25.541Z,58.93
2023-02-09T23:38:54.287Z,59.41
2023-02-09T23:41:21.468Z,58.68
2023-02-09T23:43:48.691Z,58.82
2023-02-09T23:46:21.910Z,59.00
2023-02-09T23:48:49.491Z,59.02
2023-02-09T23:51:28.364Z,58.83
2023-02-09T23:53:57.102Z,59.57
2023-02-09T23:56:24.607Z,59.20
2023-02-09T23:58:52.545Z,59.64
